Time;durP1;ratioP1;P1;durP2;ratioP2;P2;SDS_P1;SDS_P2;PMS_P1;PMS_P2;Temp;Humidity;BMP_temperature;BMP_pressure;BME280_temperature;BME280_humidity;BME280_pressure;Samples;Min_cycle;Max_cycle;Signal;HPM_P1;HPM_P2
2022/04/30 00:01:10;;;;;;;2.85;1.15;;;18.50;99.90;;;;;;5063304;28;20026;-70
2022/04/30 00:03:38;;;;;;;2.92;1.20;;;18.50;99.90;;;;;;5057010;28;20096;-70
2022/04/30 00:06:05;;;;;;;5.10;2.97;;;18.60;99.90;;;;;;5050990;28;20016;-74
2022/04/30 00:08:33;;;;;;;3.42;1.80;;;18.60;99.90;;;;;;5060359;28;20020;-71
2022/04/30 00:11:00;;;;;;;3.60;1.92;;;18.60;99.90;;;;;;5066548;28;20012;-62
2022/04/30 00:13:27;;;;;;;2.53;1.30;;;18.60;99.90;;;;;;5058220;28;20167;-62
2022/04/30 00:15:54;;;;;;;1.52;1.15;;;18.60;99.90;;;;;;5056307;28;20032;-63
2022/04/30 00:18:21;;;;;;;3.35;1.48;;;18.60;99.90;;;;;;5054345;28;20113;-63
2022/04/30 00:20:48;;;;;;;2.45;1.45;;;18.70;99.90;;;;;;5058195;28;20028;-62
2022/04/30 00:23:22;;;;;;;3.85;3.00;;;18.60;99.90;;;;;;5058362;28;20674;-70
2022/04/30 00:25:55;;;;;;;4.15;2.40;;;18.60;99.90;;;;;;5051974;28;20021;-73
2022/04/30 00:28:25;;;;;;;2.55;1.67;;;18.60;99.90;;;;;;5053721;28;20075;-71
2022/04/30 00:30:53;;;;;;;1.73;0.90;;;18.60;99.90;;;;;;5052186;28;20139;-63
2022/04/30 00:33:20;;;;;;;2.75;1.13;;;18.60;99.90;;;;;;5058988;28;20444;-61
2022/04/30 00:35:48;;;;;;;1.83;1.10;;;18.60;99.90;;;;;;5056243;28;20120;-63
2022/04/30 00:38:15;;;;;;;4.30;1.50;;;18.60;99.90;;;;;;5054403;28;20045;-68
2022/04/30 00:40:44;;;;;;;5.38;1.98;;;18.60;99.90;;;;;;5056884;28;20013;-68
2022/04/30 00:43:11;;;;;;;3.58;1.73;;;18.60;99.90;;;;;;5056609;28;20028;-61
2022/04/30 00:45:44;;;;;;;2.50;1.30;;;18.50;99.90;;;;;;5056307;28;20055;-73
2022/04/30 00:48:11;;;;;;;3.53;1.42;;;18.50;99.90;;;;;;5055050;28;20013;-69
2022/04/30 00:50:39;;;;;;;2.15;1.30;;;18.50;99.90;;;;;;5055845;28;20012;-63
2022/04/30 00:53:06;;;;;;;1.60;1.02;;;18.50;99.90;;;;;;5048935;28;20079;-72
2022/04/30 00:55:35;;;;;;;3.60;1.20;;;18.50;99.90;;;;;;5052549;28;20032;-62
2022/04/30 00:58:06;;;;;;;2.85;2.20;;;18.50;99.90;;;;;;5061560;28;20128;-68
2022/04/30 01:00:33;;;;;;;7.05;5.75;;;18.50;99.90;;;;;;4358697;28;10000807;-61
2022/04/30 01:03:02;;;;;;;7.90;6.90;;;18.50;99.90;;;;;;5045110;28;20029;-63
2022/04/30 01:05:29;;;;;;;6.57;5.88;;;18.50;99.90;;;;;;5048547;28;20027;-70
2022/04/30 01:07:57;;;;;;;8.13;5.85;;;18.50;99.90;;;;;;5055013;28;20020;-72
2022/04/30 01:10:24;;;;;;;4.85;4.03;;;18.50;99.90;;;;;;5048684;28;20947;-62
2022/04/30 01:12:53;;;;;;;2.92;2.22;;;18.50;99.90;;;;;;5054362;28;20110;-62
2022/04/30 01:15:21;;;;;;;3.75;1.65;;;18.50;99.90;;;;;;5054021;28;20021;-73
2022/04/30 01:17:48;;;;;;;2.78;1.20;;;18.50;99.90;;;;;;5054222;28;20369;-62
2022/04/30 01:20:16;;;;;;;1.95;1.10;;;18.50;99.90;;;;;;5046602;28;20024;-63
2022/04/30 01:23:02;;;;;;;2.03;1.10;;;18.50;99.90;;;;;;5052147;28;20045;-62
2022/04/30 01:25:34;;;;;;;2.92;1.15;;;18.40;99.90;;;;;;5057364;28;20513;-72
2022/04/30 01:28:02;;;;;;;2.83;1.88;;;18.40;99.90;;;;;;5053879;28;20028;-62
2022/04/30 01:30:30;;;;;;;3.50;1.60;;;18.40;99.90;;;;;;5051948;28;20040;-68
2022/04/30 01:38:27;;;;;;;1.52;1.20;;;18.40;99.90;;;;;;5048050;28;20051;-73
2022/04/30 01:40:54;;;;;;;2.90;1.10;;;18.40;99.90;;;;;;5051609;28;20029;-68
2022/04/30 01:43:22;;;;;;;2.88;1.25;;;18.40;99.90;;;;;;5046385;28;20116;-63
2022/04/30 01:45:50;;;;;;;3.83;1.55;;;18.40;99.90;;;;;;5048925;28;20703;-68
2022/04/30 01:48:17;;;;;;;2.10;1.55;;;18.40;99.90;;;;;;5050616;28;20108;-61
2022/04/30 01:50:45;;;;;;;2.45;1.25;;;18.50;99.90;;;;;;5049718;28;20021;-72
2022/04/30 01:53:12;;;;;;;1.50;1.20;;;18.50;99.90;;;;;;5053585;28;20036;-68
2022/04/30 01:55:39;;;;;;;1.50;1.10;;;18.60;99.90;;;;;;5052389;28;20132;-68
2022/04/30 01:58:07;;;;;;;4.38;1.27;;;18.70;99.90;;;;;;5054468;28;20510;-71
2022/04/30 02:00:34;;;;;;;2.13;1.02;;;18.60;99.90;;;;;;5056804;28;20485;-63
2022/04/30 02:03:08;;;;;;;3.20;1.15;;;18.60;99.90;;;;;;5049499;28;20103;-73
2022/04/30 02:05:39;;;;;;;2.65;1.20;;;18.60;99.90;;;;;;5059037;28;20044;-69
2022/04/30 02:08:13;;;;;;;2.15;1.65;;;18.60;99.90;;;;;;5057279;28;20177;-72
2022/04/30 02:10:42;;;;;;;1.75;1.15;;;18.60;99.90;;;;;;5053390;28;20025;-63
2022/04/30 02:13:14;;;;;;;3.90;1.40;;;18.60;99.90;;;;;;5055900;28;20560;-72
2022/04/30 02:15:43;;;;;;;4.07;2.00;;;18.60;99.90;;;;;;5052651;28;20024;-68
2022/04/30 02:18:14;;;;;;;5.55;2.63;;;18.70;99.90;;;;;;5056847;28;20487;-63
2022/04/30 02:20:44;;;;;;;6.05;2.15;;;18.70;99.90;;;;;;5058830;28;20025;-63
2022/04/30 02:23:11;;;;;;;4.43;2.05;;;18.70;99.90;;;;;;5059955;28;20036;-62
2022/04/30 02:25:39;;;;;;;2.33;1.55;;;18.70;99.90;;;;;;5058172;28;20028;-68
2022/04/30 02:28:09;;;;;;;11.23;2.60;;;18.80;99.90;;;;;;5058224;28;20016;-67
2022/04/30 02:30:38;;;;;;;2.97;1.50;;;18.80;99.90;;;;;;5051524;28;20032;-64
2022/04/30 02:33:12;;;;;;;2.08;1.40;;;18.80;99.90;;;;;;5053764;28;20021;-68
2022/04/30 02:35:45;;;;;;;3.05;1.50;;;18.80;99.90;;;;;;5058764;28;20024;-65
2022/04/30 02:38:12;;;;;;;4.25;2.00;;;18.70;99.90;;;;;;5057269;28;20102;-69
2022/04/30 02:40:40;;;;;;;2.30;1.10;;;18.80;99.90;;;;;;5055139;28;20076;-64
2022/04/30 02:43:12;;;;;;;3.30;1.60;;;18.80;99.90;;;;;;5053618;28;20025;-68
2022/04/30 02:45:42;;;;;;;3.10;1.20;;;18.80;99.90;;;;;;5036609;28;20082;-71
2022/04/30 02:48:09;;;;;;;2.85;1.60;;;18.70;99.90;;;;;;5052973;28;20477;-72
2022/04/30 02:50:37;;;;;;;2.35;1.38;;;18.70;99.90;;;;;;5055350;28;20024;-69
2022/04/30 02:53:05;;;;;;;3.10;1.40;;;18.80;99.90;;;;;;5035725;28;20076;-70
2022/04/30 02:55:32;;;;;;;2.15;1.15;;;18.80;99.90;;;;;;5052728;28;20171;-71
2022/04/30 03:00:48;;;;;;;2.85;1.20;;;18.70;99.90;;;;;;5052458;28;20030;-69
2022/04/30 03:03:16;;;;;;;1.65;0.90;;;18.70;99.90;;;;;;5055222;28;20021;-70
2022/04/30 03:05:44;;;;;;;3.40;1.27;;;18.70;99.90;;;;;;5053880;28;20036;-68
2022/04/30 03:08:22;;;;;;;4.28;2.33;;;18.70;99.90;;;;;;5052743;28;20044;-64
2022/04/30 03:10:51;;;;;;;1.52;1.25;;;18.80;99.90;;;;;;5055217;28;20087;-67
2022/04/30 03:13:18;;;;;;;3.58;1.63;;;19.00;99.90;;;;;;5051956;28;20020;-67
2022/04/30 03:15:47;;;;;;;3.10;1.48;;;19.00;99.90;;;;;;5049763;28;20036;-67
2022/04/30 03:23:51;;;;;;;3.20;2.58;;;19.00;99.90;;;;;;5054053;28;20086;-69
2022/04/30 03:26:20;;;;;;;2.50;2.28;;;19.10;99.90;;;;;;5051073;28;20560;-65
2022/04/30 03:28:47;;;;;;;3.70;2.85;;;19.10;99.90;;;;;;5054309;28;20107;-70
2022/04/30 03:31:16;;;;;;;13.10;11.90;;;19.20;99.90;;;;;;5051933;28;20337;-65
2022/04/30 03:33:48;;;;;;;17.13;15.60;;;19.20;99.90;;;;;;5053825;28;20491;-65
2022/04/30 03:36:16;;;;;;;3.67;3.38;;;19.20;99.90;;;;;;5056157;28;20028;-64
2022/04/30 03:38:44;;;;;;;6.57;5.47;;;19.20;99.90;;;;;;5046970;28;20071;-65
2022/04/30 03:41:11;;;;;;;5.63;4.18;;;19.20;99.90;;;;;;5051280;28;20025;-65
2022/04/30 03:43:38;;;;;;;4.82;3.08;;;19.10;99.90;;;;;;5052937;28;20396;-70
2022/04/30 03:46:05;;;;;;;4.28;3.20;;;19.20;99.90;;;;;;5052469;28;20061;-69
2022/04/30 03:48:32;;;;;;;3.65;2.75;;;19.20;99.90;;;;;;5059469;28;20016;-61
2022/04/30 03:51:00;;;;;;;4.78;2.75;;;19.20;99.90;;;;;;5051211;28;20116;-63
2022/04/30 03:53:27;;;;;;;5.00;4.03;;;19.20;99.90;;;;;;5052104;28;20484;-60
2022/04/30 03:55:54;;;;;;;4.38;3.10;;;19.20;99.90;;;;;;5056897;28;20111;-67
2022/04/30 03:58:22;;;;;;;3.03;2.72;;;19.30;99.90;;;;;;5052850;28;20140;-62
2022/04/30 04:00:49;;;;;;;6.65;5.95;;;19.30;99.90;;;;;;5036081;28;20475;-62
2022/04/30 04:03:16;;;;;;;4.13;3.72;;;19.30;99.90;;;;;;5053709;28;20033;-66
2022/04/30 04:05:43;;;;;;;4.40;4.00;;;19.40;99.90;;;;;;5051353;28;20068;-62
2022/04/30 04:08:12;;;;;;;5.43;4.45;;;19.60;99.90;;;;;;5048312;28;20429;-68
2022/04/30 04:10:43;;;;;;;4.80;4.22;;;19.60;99.90;;;;;;5056786;28;20021;-60
2022/04/30 04:18:40;;;;;;;4.13;3.65;;;19.90;99.90;;;;;;5042623;28;20031;-66
2022/04/30 04:21:10;;;;;;;5.30;4.60;;;20.00;99.90;;;;;;5055946;28;20061;-69
2022/04/30 04:26:23;;;;;;;6.10;2.90;;;20.10;99.90;;;;;;5055284;28;20461;-62
2022/04/30 04:28:50;;;;;;;3.97;3.60;;;20.10;99.90;;;;;;5055930;28;20033;-62
2022/04/30 04:31:22;;;;;;;3.25;2.95;;;20.20;99.90;;;;;;5055196;28;20028;-61
2022/04/30 04:33:49;;;;;;;3.00;2.15;;;20.30;99.90;;;;;;5057369;28;20067;-67
2022/04/30 04:36:16;;;;;;;4.80;2.08;;;20.40;99.90;;;;;;5054034;28;20507;-66
2022/04/30 04:38:44;;;;;;;3.13;1.88;;;20.40;99.90;;;;;;5057073;28;20044;-61
2022/04/30 04:41:12;;;;;;;3.35;2.17;;;20.30;99.90;;;;;;5055722;28;20020;-67
2022/04/30 04:43:39;;;;;;;2.90;2.13;;;20.40;99.90;;;;;;5056754;28;20790;-66
2022/04/30 04:46:06;;;;;;;3.40;2.92;;;20.50;99.90;;;;;;5056516;28;20020;-66
2022/04/30 04:48:33;;;;;;;4.22;2.28;;;20.60;99.90;;;;;;5058773;28;20027;-62
2022/04/30 04:51:01;;;;;;;2.72;1.95;;;20.70;99.90;;;;;;5053743;28;20034;-62
2022/04/30 04:53:29;;;;;;;3.28;1.98;;;20.70;99.90;;;;;;5055660;28;20037;-66
2022/04/30 04:55:56;;;;;;;2.75;2.00;;;20.70;99.90;;;;;;5053948;28;20489;-66
2022/04/30 04:58:23;;;;;;;4.10;2.92;;;20.80;99.90;;;;;;5054562;28;20082;-66
2022/04/30 05:00:50;;;;;;;2.28;1.67;;;20.80;99.90;;;;;;5056517;28;20025;-62
2022/04/30 05:03:17;;;;;;;4.22;2.40;;;20.80;99.90;;;;;;5056839;28;20110;-69
2022/04/30 05:05:44;;;;;;;7.82;3.78;;;20.80;99.90;;;;;;5055107;28;20482;-63
2022/04/30 05:08:11;;;;;;;2.30;1.63;;;20.90;99.90;;;;;;5055158;28;20021;-70
2022/04/30 05:10:38;;;;;;;2.55;1.40;;;20.90;99.90;;;;;;5057655;28;20521;-69
2022/04/30 05:13:05;;;;;;;2.72;1.52;;;20.90;99.90;;;;;;5055268;28;20421;-63
2022/04/30 05:15:32;;;;;;;3.30;1.70;;;20.90;99.90;;;;;;5056812;28;20032;-70
2022/04/30 05:17:59;;;;;;;1.88;1.25;;;20.90;99.90;;;;;;5054798;28;20020;-66
2022/04/30 05:20:25;;;;;;;2.15;1.10;;;21.10;99.90;;;;;;5056167;28;20028;-70
2022/04/30 05:22:52;;;;;;;4.18;1.98;;;21.10;99.90;;;;;;5053532;28;20028;-70
2022/04/30 05:25:19;;;;;;;3.35;1.75;;;21.10;99.90;;;;;;5056480;28;20491;-63
2022/04/30 05:27:46;;;;;;;2.13;1.23;;;21.00;99.90;;;;;;5053420;28;20063;-67
2022/04/30 05:30:14;;;;;;;1.52;1.17;;;21.10;99.90;;;;;;5056516;28;20034;-63
2022/04/30 05:32:40;;;;;;;2.47;1.02;;;21.40;99.90;;;;;;5054119;28;20360;-68
2022/04/30 05:35:08;;;;;;;1.08;0.90;;;22.00;99.90;;;;;;5055711;28;20086;-70
2022/04/30 05:37:35;;;;;;;1.27;0.95;;;22.70;99.90;;;;;;5055151;28;20045;-64
2022/04/30 05:40:02;;;;;;;1.40;0.70;;;23.20;99.90;;;;;;5058594;28;20043;-64
2022/04/30 05:42:29;;;;;;;0.65;0.60;;;23.70;99.90;;;;;;5061224;28;20029;-67
2022/04/30 05:44:56;;;;;;;3.40;0.80;;;23.90;99.90;;;;;;5059659;28;20020;-64
2022/04/30 05:47:23;;;;;;;2.33;0.80;;;24.20;99.90;;;;;;5059865;28;20024;-71
2022/04/30 05:49:50;;;;;;;1.77;0.98;;;24.50;99.90;;;;;;5058827;28;20029;-64
2022/04/30 05:52:19;;;;;;;1.40;1.10;;;24.60;99.90;;;;;;5058532;28;20130;-71
2022/04/30 05:54:49;;;;;;;1.80;0.90;;;24.50;99.90;;;;;;5058441;28;20033;-63
2022/04/30 05:57:16;;;;;;;3.63;0.90;;;24.70;99.90;;;;;;5058213;28;20031;-68
2022/04/30 05:59:43;;;;;;;1.60;1.00;;;24.80;99.90;;;;;;5059223;28;20037;-63
2022/04/30 06:02:10;;;;;;;2.05;1.02;;;24.80;99.90;;;;;;5059599;28;20032;-64
2022/04/30 06:04:37;;;;;;;1.20;0.88;;;25.10;99.90;;;;;;5057864;28;20075;-64
2022/04/30 06:07:04;;;;;;;1.20;0.82;;;25.30;99.90;;;;;;5059816;28;20020;-71
2022/04/30 06:09:31;;;;;;;3.25;2.78;;;25.50;99.90;;;;;;5058948;28;20025;-62
2022/04/30 06:11:58;;;;;;;3.10;2.47;;;24.90;99.90;;;;;;5057155;28;20020;-68
2022/04/30 06:14:25;;;;;;;2.83;1.70;;;24.40;99.90;;;;;;5059200;28;20040;-63
2022/04/30 06:16:52;;;;;;;2.22;1.42;;;24.70;99.90;;;;;;5059559;28;20700;-69
2022/04/30 06:19:19;;;;;;;2.35;1.60;;;25.10;99.90;;;;;;5060660;28;20031;-63
2022/04/30 06:21:45;;;;;;;2.15;1.83;;;25.40;99.90;;;;;;5057247;28;20029;-70
2022/04/30 06:24:12;;;;;;;3.92;1.77;;;25.50;99.90;;;;;;5061001;28;20039;-67
2022/04/30 06:26:39;;;;;;;3.10;1.70;;;25.60;99.90;;;;;;5058939;28;20035;-62
2022/04/30 06:29:07;;;;;;;2.92;1.70;;;25.60;99.90;;;;;;5060968;28;20020;-62
2022/04/30 06:31:34;;;;;;;3.72;1.88;;;25.80;99.90;;;;;;5059974;28;20103;-64
2022/04/30 06:34:02;;;;;;;1.95;1.52;;;25.70;99.90;;;;;;5059320;28;20150;-67
2022/04/30 06:36:29;;;;;;;4.50;1.83;;;25.50;99.90;;;;;;5058536;28;20025;-62
2022/04/30 06:38:56;;;;;;;2.83;1.50;;;25.40;99.90;;;;;;5060628;28;20111;-66
2022/04/30 06:41:23;;;;;;;3.30;1.48;;;25.20;99.90;;;;;;5052125;28;20095;-63
2022/04/30 06:43:51;;;;;;;1.52;1.38;;;25.00;99.90;;;;;;5057569;28;20039;-70
2022/04/30 06:46:18;;;;;;;3.95;1.60;;;24.90;99.90;;;;;;5056541;28;20017;-63
2022/04/30 06:48:45;;;;;;;4.10;1.40;;;24.80;99.90;;;;;;5059242;28;20020;-62
2022/04/30 06:51:12;;;;;;;1.45;1.10;;;24.50;99.90;;;;;;5058245;28;20163;-62
2022/04/30 06:59:12;;;;;;;2.38;1.15;;;23.90;99.90;;;;;;5058202;28;20058;-66
2022/04/30 07:04:07;;;;;;;1.92;1.60;;;23.20;99.90;;;;;;5055843;28;20097;-62
2022/04/30 07:06:35;;;;;;;3.53;1.70;;;23.00;99.90;;;;;;5058374;28;20108;-69
2022/04/30 07:09:07;;;;;;;1.75;1.30;;;22.50;99.90;;;;;;5055852;28;20205;-62
2022/04/30 07:11:34;;;;;;;;;;;22.00;99.90;;;;;;5058344;28;20467;-66
2022/04/30 07:14:01;;;;;;;1.90;1.20;;;21.40;99.90;;;;;;5057384;28;20161;-63
2022/04/30 07:16:28;;;;;;;6.22;3.42;;;20.80;99.90;;;;;;5058008;28;20035;-68
2022/04/30 07:18:55;;;;;;;8.02;5.57;;;20.40;99.90;;;;;;5059353;28;20036;-63
2022/04/30 07:21:23;;;;;;;3.50;3.15;;;20.10;99.90;;;;;;5056030;28;20040;-70
2022/04/30 07:23:51;;;;;;;2.83;2.00;;;19.70;99.90;;;;;;5055354;28;20509;-66
2022/04/30 07:26:18;;;;;;;2.10;1.75;;;19.40;99.90;;;;;;5053191;28;20028;-70
2022/04/30 07:28:46;;;;;;;4.78;2.47;;;19.20;99.90;;;;;;5055122;28;20696;-64
2022/04/30 07:31:13;;;;;;;3.15;2.30;;;18.90;99.90;;;;;;5048415;28;20025;-66
2022/04/30 07:33:41;;;;;;;5.13;2.42;;;18.60;99.90;;;;;;5051507;28;20100;-72
2022/04/30 07:36:08;;;;;;;4.13;2.85;;;18.30;99.90;;;;;;5054451;28;20033;-72
2022/04/30 07:38:35;;;;;;;5.60;3.50;;;18.10;99.90;;;;;;5058359;28;20459;-64
2022/04/30 07:41:02;;;;;;;5.50;3.10;;;18.10;99.90;;;;;;5056274;28;20546;-68
2022/04/30 07:43:29;;;;;;;5.18;3.45;;;18.00;99.90;;;;;;5060996;28;20413;-70
2022/04/30 07:45:56;;;;;;;4.22;2.50;;;17.80;99.90;;;;;;5061478;28;20087;-64
2022/04/30 07:48:23;;;;;;;7.15;5.10;;;17.70;99.90;;;;;;5060509;28;20029;-69
2022/04/30 07:50:52;;;;;;;2.88;2.47;;;17.60;99.90;;;;;;5059789;28;20627;-72
2022/04/30 07:53:19;;;;;;;4.75;3.60;;;17.60;99.90;;;;;;5061402;28;20132;-65
2022/04/30 07:55:47;;;;;;;9.32;8.45;;;17.40;99.90;;;;;;5061054;28;20025;-66
2022/04/30 07:58:14;;;;;;;6.43;3.83;;;17.10;99.90;;;;;;5060559;28;20042;-69
2022/04/30 08:00:41;;;;;;;5.45;4.28;;;17.00;99.90;;;;;;5059399;28;20048;-67
2022/04/30 08:03:08;;;;;;;6.28;4.00;;;17.00;99.90;;;;;;5056266;28;20072;-67
2022/04/30 08:05:35;;;;;;;5.10;4.22;;;16.90;99.90;;;;;;5060927;28;20032;-67
2022/04/30 08:08:02;;;;;;;6.15;2.75;;;16.80;99.90;;;;;;5058644;28;20078;-68
2022/04/30 08:10:29;;;;;;;5.78;3.75;;;16.80;99.90;;;;;;5057730;28;20021;-69
2022/04/30 08:12:59;;;;;;;3.33;2.45;;;16.80;99.90;;;;;;5056629;28;20096;-71
2022/04/30 08:15:27;;;;;;;3.45;2.97;;;16.70;99.90;;;;;;5056812;28;20025;-66
2022/04/30 08:17:54;;;;;;;7.00;4.25;;;16.60;99.90;;;;;;5055444;28;20055;-65
2022/04/30 08:20:22;;;;;;;5.10;3.20;;;16.50;99.90;;;;;;5059016;28;20139;-66
2022/04/30 08:22:50;;;;;;;6.97;3.30;;;16.30;99.90;;;;;;5055730;28;20024;-70
2022/04/30 08:25:17;;;;;;;5.57;3.35;;;16.20;99.90;;;;;;5059335;28;20111;-69
2022/04/30 08:27:44;;;;;;;6.50;5.82;;;16.20;99.90;;;;;;5058663;28;20494;-67
2022/04/30 08:30:12;;;;;;;5.75;4.50;;;16.20;99.90;;;;;;5056564;28;20020;-68
2022/04/30 08:32:39;;;;;;;3.33;2.00;;;16.10;99.90;;;;;;5058495;28;20162;-65
2022/04/30 08:35:06;;;;;;;4.82;2.45;;;16.10;99.90;;;;;;5057369;28;20033;-73
2022/04/30 08:37:33;;;;;;;3.40;1.80;;;15.90;99.90;;;;;;5060483;28;20051;-66
2022/04/30 08:40:00;;;;;;;4.35;2.50;;;16.00;99.90;;;;;;5057984;28;20101;-66
2022/04/30 08:42:28;;;;;;;3.35;1.63;;;15.90;99.90;;;;;;5058838;28;20507;-67
2022/04/30 08:44:58;;;;;;;6.82;1.77;;;15.80;99.90;;;;;;5058536;28;20514;-67
2022/04/30 08:47:25;;;;;;;2.30;1.42;;;15.80;99.90;;;;;;5058245;28;20027;-66
2022/04/30 08:49:53;;;;;;;4.07;1.90;;;15.80;99.90;;;;;;5057213;28;20318;-72
2022/04/30 08:52:20;;;;;;;5.85;2.97;;;15.70;99.90;;;;;;5056257;28;20024;-72
2022/04/30 08:54:47;;;;;;;2.50;2.15;;;15.80;99.90;;;;;;5058334;28;20025;-72
2022/04/30 08:57:15;;;;;;;3.42;1.73;;;15.70;99.90;;;;;;5058121;28;20020;-71
2022/04/30 08:59:43;;;;;;;2.38;1.35;;;15.70;99.90;;;;;;5057053;28;20425;-70
2022/04/30 09:02:11;;;;;;;4.07;1.65;;;15.60;99.90;;;;;;5057066;28;20039;-69
2022/04/30 09:04:48;;;;;;;3.22;1.50;;;15.50;99.90;;;;;;5056203;28;20028;-69
2022/04/30 09:07:20;;;;;;;3.58;1.85;;;15.40;99.90;;;;;;5058290;28;20539;-70
2022/04/30 09:09:59;;;;;;;4.43;1.58;;;15.40;99.90;;;;;;5059019;28;20477;-70
2022/04/30 09:12:29;;;;;;;3.75;1.42;;;15.30;99.90;;;;;;5056351;28;20036;-69
2022/04/30 09:14:59;;;;;;;2.25;1.25;;;15.20;99.90;;;;;;5063805;28;20024;-70
2022/04/30 09:17:29;;;;;;;2.63;1.23;;;15.10;99.90;;;;;;5061105;28;20071;-70
2022/04/30 09:20:01;;;;;;;3.45;1.27;;;15.10;99.90;;;;;;5063845;28;20489;-74
2022/04/30 09:22:33;;;;;;;1.38;0.90;;;15.20;99.90;;;;;;5061348;28;20419;-69
2022/04/30 09:25:04;;;;;;;2.13;1.10;;;15.40;99.90;;;;;;5063050;28;20421;-67
2022/04/30 09:27:32;;;;;;;8.88;1.17;;;15.30;99.90;;;;;;5059879;28;20027;-73
2022/04/30 09:29:59;;;;;;;2.50;0.80;;;15.20;99.90;;;;;;5061651;28;20551;-71
2022/04/30 09:32:30;;;;;;;3.28;1.10;;;15.20;99.90;;;;;;5057358;28;20028;-72
2022/04/30 09:37:43;;;;;;;2.80;1.13;;;15.10;99.90;;;;;;5057398;28;20063;-67
2022/04/30 09:40:16;;;;;;;1.42;1.25;;;14.90;99.90;;;;;;5062617;28;20569;-65
2022/04/30 09:42:46;;;;;;;3.25;1.10;;;14.70;99.90;;;;;;5059107;28;20546;-66
2022/04/30 09:45:33;;;;;;;3.67;0.90;;;14.60;99.90;;;;;;5061059;28;20028;-65
2022/04/30 09:53:57;;;;;;;1.38;0.90;;;14.30;99.90;;;;;;5056916;28;20038;-69
2022/04/30 09:56:35;;;;;;;3.13;1.15;;;14.40;99.90;;;;;;5060651;28;20060;-72
2022/04/30 09:59:11;;;;;;;4.10;1.27;;;14.50;99.90;;;;;;5057823;28;20046;-72
2022/04/30 10:01:44;;;;;;;1.92;1.17;;;14.50;99.90;;;;;;5059729;28;20583;-68
2022/04/30 10:04:16;;;;;;;2.72;1.60;;;14.50;99.90;;;;;;5059553;28;20029;-72
2022/04/30 10:06:45;;;;;;;5.32;1.33;;;14.40;99.90;;;;;;5060302;28;20029;-72
2022/04/30 10:09:24;;;;;;;3.65;1.60;;;14.30;99.90;;;;;;5059559;28;20094;-68
2022/04/30 10:12:09;;;;;;;2.75;1.20;;;14.50;99.90;;;;;;5061006;28;20028;-67
2022/04/30 10:15:00;;;;;;;2.90;1.20;;;14.50;99.90;;;;;;5058610;28;20188;-66
2022/04/30 10:17:32;;;;;;;4.90;1.40;;;14.20;99.90;;;;;;5060126;28;20043;-67
2022/04/30 10:20:18;;;;;;;3.90;1.48;;;14.10;99.90;;;;;;5058460;28;20086;-71
2022/04/30 10:22:57;;;;;;;2.03;1.45;;;13.90;99.90;;;;;;5060596;28;20432;-71
2022/04/30 10:25:35;;;;;;;2.83;1.70;;;13.80;99.90;;;;;;5057985;28;20070;-71
2022/04/30 10:28:17;;;;;;;4.65;1.25;;;13.70;99.90;;;;;;5060010;28;20098;-71
2022/04/30 10:30:46;;;;;;;3.90;1.50;;;13.80;99.90;;;;;;5057045;28;20143;-67
2022/04/30 10:33:13;;;;;;;3.85;1.25;;;13.90;99.90;;;;;;5059662;28;20036;-69
2022/04/30 10:35:45;;;;;;;6.30;1.33;;;13.90;99.90;;;;;;5057429;28;20016;-71
2022/04/30 10:38:18;;;;;;;3.10;1.25;;;13.90;99.90;;;;;;5066307;22;20102;-71
2022/04/30 10:40:51;;;;;;;1.40;1.23;;;13.90;99.90;;;;;;5061100;28;20062;-67
2022/04/30 10:43:18;;;;;;;;;;;14.00;99.90;;;;;;5062860;28;20066;-71
2022/04/30 10:45:46;;;;;;;5.18;1.40;;;13.90;99.90;;;;;;5062713;28;20747;-66
2022/04/30 10:48:13;;;;;;;3.05;1.20;;;13.90;99.90;;;;;;5062466;28;20036;-70
2022/04/30 10:50:40;;;;;;;3.85;1.92;;;13.90;99.90;;;;;;5060729;28;20103;-68
2022/04/30 10:53:10;;;;;;;2.88;1.50;;;13.90;99.90;;;;;;5062039;28;20028;-68
2022/04/30 10:55:41;;;;;;;5.13;1.70;;;14.10;99.90;;;;;;5061419;28;20514;-72
2022/04/30 10:58:08;;;;;;;5.63;1.80;;;14.10;99.90;;;;;;5062659;28;20028;-67
2022/04/30 11:00:35;;;;;;;3.50;2.15;;;14.10;99.90;;;;;;5061993;28;20040;-68
2022/04/30 11:03:11;;;;;;;2.58;1.10;;;14.20;99.90;;;;;;5063687;28;20029;-71
2022/04/30 11:05:38;;;;;;;1.92;0.98;;;14.20;99.90;;;;;;5064747;28;20024;-68
2022/04/30 11:08:05;;;;;;;3.30;1.70;;;14.30;99.90;;;;;;5064553;28;20016;-66
2022/04/30 11:10:33;;;;;;;2.40;1.45;;;14.20;99.90;;;;;;5062964;28;20050;-67
2022/04/30 11:13:06;;;;;;;3.00;1.63;;;14.00;99.90;;;;;;5063008;28;20047;-66
2022/04/30 11:15:34;;;;;;;4.00;1.70;;;13.90;99.90;;;;;;5063956;28;20398;-70
2022/04/30 11:18:01;;;;;;;5.00;1.17;;;14.00;99.90;;;;;;5063912;28;20131;-69
2022/04/30 11:20:31;;;;;;;1.65;1.08;;;14.00;99.90;;;;;;5064376;28;20128;-67
2022/04/30 11:23:02;;;;;;;3.50;1.50;;;13.70;99.90;;;;;;5043307;28;20687;-72
2022/04/30 11:25:40;;;;;;;3.35;0.95;;;13.50;99.90;;;;;;5062800;28;20025;-66
2022/04/30 11:28:08;;;;;;;2.05;0.60;;;13.40;99.90;;;;;;5063857;28;20036;-66
2022/04/30 11:30:46;;;;;;;2.50;1.02;;;13.30;99.90;;;;;;5064635;28;20567;-69
2022/04/30 11:33:13;;;;;;;4.10;1.27;;;13.10;99.90;;;;;;5064200;28;20028;-72
2022/04/30 11:35:40;;;;;;;2.63;1.10;;;13.00;99.90;;;;;;5061905;28;20544;-68
2022/04/30 11:38:11;;;;;;;1.88;0.77;;;12.90;99.90;;;;;;5063256;28;20515;-67
2022/04/30 11:40:47;;;;;;;2.72;0.80;;;12.80;99.90;;;;;;5064297;28;20038;-67
2022/04/30 11:43:13;;;;;;;2.47;1.00;;;12.60;99.90;;;;;;5064617;28;20032;-65
2022/04/30 11:45:40;;;;;;;4.05;1.25;;;12.50;99.90;;;;;;5061770;28;20028;-69
2022/04/30 11:48:10;;;;;;;3.60;1.15;;;12.50;99.90;;;;;;5063938;28;20021;-69
2022/04/30 11:50:40;;;;;;;2.78;0.88;;;12.60;99.90;;;;;;5063784;28;20103;-68
2022/04/30 11:53:10;;;;;;;5.13;1.00;;;12.60;99.90;;;;;;5065100;28;20028;-69
2022/04/30 11:55:39;;;;;;;2.83;0.90;;;12.60;99.90;;;;;;5062692;28;20021;-66
2022/04/30 11:58:06;;;;;;;2.70;0.82;;;12.50;99.90;;;;;;5063290;28;20529;-69
2022/04/30 12:00:35;;;;;;;3.15;1.10;;;12.40;99.90;;;;;;5061814;28;20035;-71
2022/04/30 12:03:02;;;;;;;2.17;1.00;;;12.30;99.90;;;;;;5063673;28;20121;-69
2022/04/30 12:05:31;;;;;;;3.47;1.00;;;12.30;99.90;;;;;;5063753;28;20024;-69
2022/04/30 12:08:03;;;;;;;2.88;0.70;;;12.30;99.90;;;;;;5064227;28;20263;-65
2022/04/30 12:10:30;;;;;;;1.58;0.90;;;12.40;99.90;;;;;;5061971;28;20085;-68
2022/04/30 12:12:57;;;;;;;3.28;1.10;;;12.30;99.90;;;;;;5062826;28;20491;-69
2022/04/30 12:15:25;;;;;;;2.25;0.90;;;12.10;99.90;;;;;;5061253;28;20485;-69
2022/04/30 12:26:52;;;;;;;2.03;0.80;;;11.80;99.90;;;;;;5062845;28;20067;-68
2022/04/30 12:29:21;;;;;;;1.73;0.95;;;11.80;99.90;;;;;;5064641;28;20788;-68
2022/04/30 12:31:51;;;;;;;1.15;0.70;;;11.70;99.90;;;;;;5064203;28;20077;-71
2022/04/30 12:34:25;;;;;;;2.30;0.82;;;11.60;99.90;;;;;;5063993;28;20028;-70
2022/04/30 12:39:52;;;;;;;3.33;1.00;;;11.50;99.90;;;;;;5064957;28;20052;-74
2022/04/30 12:42:19;;;;;;;1.48;0.93;;;11.40;99.90;;;;;;5066574;28;20502;-68
2022/04/30 12:44:46;;;;;;;2.03;0.90;;;11.40;99.90;;;;;;5048970;28;20396;-66
2022/04/30 12:47:13;;;;;;;4.00;1.35;;;11.40;99.90;;;;;;5064548;28;20963;-68
2022/04/30 12:49:40;;;;;;;2.08;1.25;;;11.40;99.90;;;;;;5063197;28;20016;-68
2022/04/30 12:52:07;;;;;;;1.30;1.05;;;11.40;99.90;;;;;;5062541;28;20066;-67
2022/04/30 12:54:34;;;;;;;1.70;0.82;;;11.40;99.90;;;;;;5047706;28;20052;-69
2022/04/30 12:57:07;;;;;;;2.20;1.33;;;11.30;99.90;;;;;;5065671;28;20094;-67
2022/04/30 12:59:36;;;;;;;1.88;1.10;;;11.30;99.90;;;;;;5066160;28;20116;-68
2022/04/30 13:02:05;;;;;;;1.88;1.02;;;11.20;99.90;;;;;;5067224;28;20429;-71
2022/04/30 13:04:32;;;;;;;1.77;1.00;;;11.10;99.90;;;;;;5066529;28;20450;-70
2022/04/30 13:06:59;;;;;;;2.50;1.10;;;11.00;99.90;;;;;;5067225;28;20031;-68
2022/04/30 13:14:56;;;;;;;2.13;0.98;;;11.00;99.90;;;;;;5064534;28;20028;-70
2022/04/30 13:17:23;;;;;;;2.05;1.20;;;11.00;99.90;;;;;;5066883;28;20036;-70
2022/04/30 13:19:51;;;;;;;1.27;0.90;;;10.90;99.90;;;;;;5065732;28;20103;-69
2022/04/30 13:22:17;;;;;;;2.38;1.00;;;10.90;99.90;;;;;;5067499;28;20094;-67
2022/04/30 13:24:44;;;;;;;1.80;1.08;;;10.90;99.90;;;;;;5072594;28;20651;-68
2022/04/30 13:27:11;;;;;;;3.22;1.00;;;10.90;99.90;;;;;;5066273;28;20028;-70
2022/04/30 13:29:38;;;;;;;4.68;1.35;;;10.90;99.90;;;;;;5066383;28;20021;-68
2022/04/30 13:32:05;;;;;;;2.63;1.20;;;10.90;99.90;;;;;;5065881;28;20025;-69
2022/04/30 13:34:32;;;;;;;3.33;1.13;;;10.80;99.90;;;;;;5065107;28;20501;-69
2022/04/30 13:37:01;;;;;;;1.33;0.90;;;10.80;99.90;;;;;;4716889;28;10000057;-70
2022/04/30 13:39:29;;;;;;;3.15;1.45;;;10.90;99.90;;;;;;5066106;28;20020;-70
2022/04/30 13:41:56;;;;;;;3.92;1.42;;;10.80;99.90;;;;;;5066839;28;20052;-67
2022/04/30 13:44:23;;;;;;;2.78;1.23;;;10.70;99.90;;;;;;5054230;28;20071;-70
2022/04/30 13:46:51;;;;;;;2.28;1.13;;;10.60;99.90;;;;;;5070757;28;20095;-66
2022/04/30 13:49:18;;;;;;;4.47;1.67;;;10.60;99.90;;;;;;5069099;28;20067;-68
2022/04/30 13:51:45;;;;;;;3.00;1.30;;;10.70;99.90;;;;;;5068397;28;20017;-69